Time;durP1;ratioP1;P1;durP2;ratioP2;P2;SDS_P1;SDS_P2;PMS_P1;PMS_P2;Temp;Humidity;BMP_temperature;BMP_pressure;BME280_temperature;BME280_humidity;BME280_pressure;Samples;Min_cycle;Max_cycle;Signal;HPM_P1;HPM_P2
2021/09/18 00:01:20;;;;;;;1.83;1.73;;;24.40;49.70;;;;;;5030866;28;20230;-44
2021/09/18 00:03:46;;;;;;;2.00;1.80;;;24.50;49.70;;;;;;5032606;28;20234;-50
2021/09/18 00:06:13;;;;;;;1.60;1.50;;;24.40;49.60;;;;;;5034239;28;20214;-44
2021/09/18 00:08:39;;;;;;;1.80;1.70;;;24.50;49.70;;;;;;5032634;28;20233;-49
2021/09/18 00:11:06;;;;;;;2.17;1.67;;;24.40;49.60;;;;;;5033605;28;20225;-44
2021/09/18 00:13:32;;;;;;;1.70;1.60;;;24.50;49.70;;;;;;5033248;28;20199;-45
2021/09/18 00:15:59;;;;;;;2.03;1.80;;;24.50;49.70;;;;;;5033603;28;20313;-48
2021/09/18 00:18:25;;;;;;;2.50;1.80;;;24.50;49.70;;;;;;5032662;28;20600;-48
2021/09/18 00:20:52;;;;;;;1.98;1.83;;;24.40;49.60;;;;;;5033726;28;20249;-47
2021/09/18 00:23:19;;;;;;;1.95;1.85;;;24.40;49.50;;;;;;5032993;28;20207;-47
2021/09/18 00:25:45;;;;;;;1.58;1.48;;;24.40;49.60;;;;;;5033799;28;20265;-43
2021/09/18 00:28:12;;;;;;;1.85;1.70;;;24.50;49.70;;;;;;5029199;28;20235;-44
2021/09/18 00:30:39;;;;;;;1.85;1.60;;;24.40;49.60;;;;;;5032996;28;20198;-49
2021/09/18 00:33:06;;;;;;;1.75;1.63;;;24.40;49.60;;;;;;5032304;28;20204;-50
2021/09/18 00:35:32;;;;;;;1.80;1.70;;;24.40;49.60;;;;;;5033424;28;20230;-46
2021/09/18 00:37:58;;;;;;;1.90;1.80;;;24.50;49.70;;;;;;5032268;28;20230;-44
2021/09/18 00:40:25;;;;;;;1.90;1.70;;;24.40;49.60;;;;;;5032301;28;20245;-45
2021/09/18 00:42:52;;;;;;;1.52;1.42;;;24.50;49.70;;;;;;5031804;28;20211;-49
2021/09/18 00:45:18;;;;;;;1.95;1.80;;;24.50;49.70;;;;;;5032478;28;20667;-43
2021/09/18 00:47:44;;;;;;;2.38;1.65;;;24.40;49.60;;;;;;5033215;28;20237;-43
2021/09/18 00:50:11;;;;;;;1.88;1.77;;;24.40;49.70;;;;;;5032528;28;20199;-42
2021/09/18 00:52:37;;;;;;;1.70;1.60;;;24.40;49.60;;;;;;5030285;28;20330;-45
2021/09/18 00:55:04;;;;;;;2.00;1.67;;;24.40;49.60;;;;;;5030505;28;20246;-45
2021/09/18 00:57:30;;;;;;;1.70;1.60;;;24.40;49.70;;;;;;5031868;28;20663;-43
2021/09/18 01:00:01;;;;;;;2.13;1.60;;;24.40;49.60;;;;;;5032584;28;20231;-42
2021/09/18 01:02:28;;;;;;;2.05;1.50;;;24.40;49.60;;;;;;5033338;28;20297;-46
2021/09/18 01:04:54;;;;;;;2.72;1.40;;;24.40;49.60;;;;;;5031605;28;20651;-42
2021/09/18 01:07:21;;;;;;;1.50;1.40;;;24.40;49.60;;;;;;5032146;28;20281;-45
2021/09/18 01:09:47;;;;;;;1.73;1.63;;;24.40;49.60;;;;;;5032101;28;20709;-42
2021/09/18 01:12:14;;;;;;;1.75;1.65;;;24.40;49.60;;;;;;5033458;28;20241;-45
2021/09/18 01:14:40;;;;;;;2.00;1.80;;;24.40;49.70;;;;;;5030638;28;20238;-44
2021/09/18 01:17:07;;;;;;;2.33;2.00;;;24.40;49.60;;;;;;5032160;28;20278;-50
2021/09/18 01:19:33;;;;;;;2.00;1.90;;;24.40;49.60;;;;;;5032186;28;20234;-46
2021/09/18 01:22:00;;;;;;;2.50;1.90;;;24.40;49.60;;;;;;5031672;28;20690;-42
2021/09/18 01:24:26;;;;;;;1.52;1.42;;;24.40;49.60;;;;;;5031455;28;20237;-46
2021/09/18 01:26:53;;;;;;;1.90;1.80;;;24.40;49.60;;;;;;5032714;28;20233;-43
2021/09/18 01:29:19;;;;;;;2.17;1.60;;;24.40;49.70;;;;;;5031350;28;20637;-46
2021/09/18 01:31:46;;;;;;;1.70;1.60;;;24.40;49.60;;;;;;5031777;28;20234;-43
2021/09/18 01:34:12;;;;;;;1.60;1.50;;;24.40;49.60;;;;;;5031854;28;20195;-44
2021/09/18 01:36:39;;;;;;;1.70;1.48;;;24.40;49.60;;;;;;5030757;28;20277;-46
2021/09/18 01:39:05;;;;;;;1.60;1.50;;;24.40;49.60;;;;;;5030982;28;20252;-44
2021/09/18 01:41:32;;;;;;;1.60;1.50;;;24.40;49.70;;;;;;5031412;28;20238;-47
2021/09/18 01:43:59;;;;;;;1.67;1.40;;;24.40;49.60;;;;;;5032294;28;20642;-44
2021/09/18 01:46:26;;;;;;;2.15;1.63;;;24.40;49.60;;;;;;5031539;28;20219;-48
2021/09/18 01:48:52;;;;;;;1.98;1.88;;;24.40;49.70;;;;;;5031237;28;20198;-42
2021/09/18 01:51:19;;;;;;;1.92;1.83;;;24.40;49.60;;;;;;5019524;28;20635;-47
2021/09/18 01:53:45;;;;;;;2.88;1.67;;;24.40;49.60;;;;;;5031128;28;20211;-44
2021/09/18 01:56:12;;;;;;;1.90;1.80;;;24.40;49.60;;;;;;5028817;28;20274;-43
2021/09/18 01:58:38;;;;;;;1.60;1.50;;;24.40;49.70;;;;;;5030902;28;20253;-43
2021/09/18 02:01:05;;;;;;;1.83;1.73;;;24.40;49.60;;;;;;5030325;28;20777;-46
2021/09/18 02:03:31;;;;;;;1.60;1.50;;;24.40;49.60;;;;;;5031970;28;20202;-43
2021/09/18 02:05:58;;;;;;;1.60;1.50;;;24.40;49.60;;;;;;5030545;28;20279;-53
2021/09/18 02:08:24;;;;;;;2.15;1.70;;;24.40;49.70;;;;;;5031766;28;20295;-46
2021/09/18 02:10:50;;;;;;;1.58;1.48;;;24.40;49.70;;;;;;5030910;28;20310;-45
2021/09/18 02:13:17;;;;;;;1.85;1.73;;;24.40;49.70;;;;;;5032004;28;20242;-46
2021/09/18 02:15:43;;;;;;;1.83;1.73;;;24.40;49.70;;;;;;5030689;28;20313;-49
2021/09/18 02:18:10;;;;;;;1.60;1.45;;;24.40;49.70;;;;;;5031209;28;20280;-48
2021/09/18 02:20:36;;;;;;;2.50;1.85;;;24.40;49.70;;;;;;5030934;28;20230;-48
2021/09/18 02:23:03;;;;;;;1.50;1.40;;;24.40;49.70;;;;;;5031535;28;20697;-45
2021/09/18 02:25:29;;;;;;;1.70;1.60;;;24.40;49.70;;;;;;5029709;28;20214;-46
2021/09/18 02:27:56;;;;;;;1.98;1.60;;;24.40;49.70;;;;;;5026379;28;20242;-43
2021/09/18 02:30:22;;;;;;;1.52;1.42;;;24.40;49.70;;;;;;5026202;28;20203;-47
2021/09/18 02:32:49;;;;;;;1.70;1.60;;;24.40;49.70;;;;;;5031649;28;20265;-43
2021/09/18 02:35:15;;;;;;;1.88;1.77;;;24.40;49.70;;;;;;5029992;28;20276;-47
2021/09/18 02:37:42;;;;;;;1.70;1.60;;;24.40;49.70;;;;;;5030981;28;20238;-45
2021/09/18 02:40:08;;;;;;;1.83;1.70;;;24.40;49.70;;;;;;5030142;28;20663;-43
2021/09/18 02:42:35;;;;;;;1.67;1.58;;;24.40;49.70;;;;;;5031578;28;20280;-44
2021/09/18 02:45:01;;;;;;;1.83;1.58;;;24.40;49.70;;;;;;5030347;28;20261;-43
2021/09/18 02:47:28;;;;;;;2.08;1.60;;;24.40;49.70;;;;;;5029605;28;20238;-46
2021/09/18 02:49:54;;;;;;;1.75;1.65;;;24.40;49.80;;;;;;5030120;28;20271;-42
2021/09/18 02:52:21;;;;;;;1.60;1.50;;;24.40;49.80;;;;;;5030980;28;20298;-46
2021/09/18 02:54:47;;;;;;;1.60;1.50;;;24.40;49.80;;;;;;5030278;28;20269;-47
2021/09/18 02:57:14;;;;;;;2.22;1.70;;;24.40;49.80;;;;;;5028075;28;20329;-51
2021/09/18 02:59:40;;;;;;;3.22;1.60;;;24.40;49.70;;;;;;5029325;28;20230;-44
2021/09/18 03:02:06;;;;;;;1.58;1.48;;;24.40;49.70;;;;;;5029175;28;20307;-47
2021/09/18 03:04:33;;;;;;;2.03;1.50;;;24.40;49.80;;;;;;5028918;28;20222;-50
2021/09/18 03:06:59;;;;;;;1.52;1.42;;;24.40;49.80;;;;;;5030445;28;20611;-47
2021/09/18 03:09:26;;;;;;;1.75;1.65;;;24.40;49.80;;;;;;5030242;28;20230;-51
2021/09/18 03:11:52;;;;;;;1.60;1.50;;;24.40;49.80;;;;;;5030716;28;20667;-44
2021/09/18 03:14:19;;;;;;;1.48;1.33;;;24.40;49.80;;;;;;5030304;28;20258;-46
2021/09/18 03:16:45;;;;;;;1.60;1.50;;;24.40;49.80;;;;;;5030033;28;20636;-45
2021/09/18 03:19:12;;;;;;;1.60;1.45;;;24.40;49.80;;;;;;5030429;28;20230;-47
2021/09/18 03:21:38;;;;;;;1.90;1.60;;;24.40;49.80;;;;;;5029994;28;20264;-48
2021/09/18 03:24:05;;;;;;;1.77;1.55;;;24.40;49.80;;;;;;5031062;28;20250;-44
2021/09/18 03:26:31;;;;;;;1.55;1.45;;;24.40;49.90;;;;;;5029902;28;20256;-48
2021/09/18 03:28:58;;;;;;;1.50;1.40;;;24.40;49.90;;;;;;5030175;28;20625;-43
2021/09/18 03:31:24;;;;;;;1.65;1.40;;;24.40;49.80;;;;;;5029878;28;20207;-43
2021/09/18 03:33:51;;;;;;;1.50;1.40;;;24.40;49.90;;;;;;5030564;28;20662;-48
2021/09/18 03:36:17;;;;;;;1.90;1.80;;;24.40;49.80;;;;;;5030162;28;20281;-44
2021/09/18 03:38:44;;;;;;;2.05;1.85;;;24.40;49.90;;;;;;5033761;28;20252;-44
2021/09/18 03:41:10;;;;;;;1.67;1.58;;;24.40;49.90;;;;;;5030314;28;20245;-43
2021/09/18 03:43:37;;;;;;;1.50;1.40;;;24.40;49.90;;;;;;5034452;28;20229;-43
2021/09/18 03:46:03;;;;;;;1.95;1.58;;;24.40;49.90;;;;;;5032897;28;20249;-46
2021/09/18 03:48:30;;;;;;;1.70;1.60;;;24.40;49.90;;;;;;5034136;28;20336;-43
2021/09/18 03:50:56;;;;;;;1.80;1.70;;;24.40;49.90;;;;;;5033313;28;20284;-50
2021/09/18 03:53:23;;;;;;;1.75;1.50;;;24.40;49.90;;;;;;5034675;28;20668;-44
2021/09/18 03:55:49;;;;;;;1.73;1.63;;;24.40;49.90;;;;;;5033492;28;20222;-45
2021/09/18 03:58:15;;;;;;;1.38;1.27;;;24.40;49.90;;;;;;5033906;28;20234;-43
2021/09/18 04:00:42;;;;;;;1.60;1.50;;;24.40;49.90;;;;;;5032126;28;20226;-44
2021/09/18 04:03:09;;;;;;;1.67;1.58;;;24.40;50.00;;;;;;5031462;28;20286;-46
2021/09/18 04:05:38;;;;;;;1.70;1.60;;;24.30;49.90;;;;;;5033423;28;20254;-47
2021/09/18 04:08:04;;;;;;;1.50;1.40;;;24.30;49.90;;;;;;5033967;28;20301;-48
2021/09/18 04:10:31;;;;;;;1.77;1.67;;;24.40;50.10;;;;;;5032010;28;20230;-45
2021/09/18 04:12:57;;;;;;;1.80;1.70;;;24.30;49.90;;;;;;5034452;28;20288;-43
2021/09/18 04:15:24;;;;;;;1.40;1.30;;;24.30;50.00;;;;;;5033125;28;20246;-48
2021/09/18 04:17:50;;;;;;;1.30;1.20;;;24.30;49.90;;;;;;5033851;28;20630;-45
2021/09/18 04:20:17;;;;;;;1.77;1.65;;;24.30;50.00;;;;;;5032126;28;20245;-49
2021/09/18 04:22:43;;;;;;;1.40;1.30;;;24.30;50.00;;;;;;5033378;28;20242;-43
2021/09/18 04:25:10;;;;;;;1.75;1.65;;;24.30;50.00;;;;;;5032860;28;20654;-45
2021/09/18 04:27:36;;;;;;;1.80;1.70;;;24.30;50.00;;;;;;5033966;28;20229;-42
2021/09/18 04:30:03;;;;;;;1.73;1.63;;;24.30;50.00;;;;;;5026499;28;20234;-45
2021/09/18 04:32:29;;;;;;;1.48;1.38;;;24.30;50.10;;;;;;5030843;28;20272;-44
2021/09/18 04:34:56;;;;;;;1.67;1.45;;;24.30;50.00;;;;;;5031891;28;20234;-44
2021/09/18 04:37:23;;;;;;;1.50;1.40;;;24.30;50.00;;;;;;5033272;28;20269;-43
2021/09/18 04:39:49;;;;;;;1.40;1.30;;;24.30;50.10;;;;;;5031496;28;20245;-45
2021/09/18 04:42:16;;;;;;;1.60;1.50;;;24.30;50.00;;;;;;5032612;28;20257;-43
2021/09/18 04:44:42;;;;;;;1.52;1.42;;;24.30;50.00;;;;;;5032495;28;20276;-43
2021/09/18 04:47:09;;;;;;;1.60;1.50;;;24.30;50.10;;;;;;5033105;28;20207;-42
2021/09/18 04:49:35;;;;;;;1.83;1.50;;;24.30;50.10;;;;;;5031343;28;20623;-44
2021/09/18 04:52:02;;;;;;;1.58;1.48;;;24.30;50.10;;;;;;5033211;28;20230;-44
2021/09/18 04:54:28;;;;;;;1.73;1.63;;;24.30;50.20;;;;;;5032083;28;20249;-46
2021/09/18 04:56:55;;;;;;;1.98;1.50;;;24.30;50.00;;;;;;5032966;28;20296;-43
2021/09/18 04:59:23;;;;;;;2.25;1.67;;;24.30;50.10;;;;;;5033358;28;20293;-44
2021/09/18 05:01:50;;;;;;;1.40;1.30;;;24.30;50.20;;;;;;5035832;28;20195;-43
2021/09/18 05:04:16;;;;;;;1.27;1.20;;;24.30;50.30;;;;;;5030600;28;20701;-43
2021/09/18 05:06:43;;;;;;;1.52;1.42;;;24.30;50.30;;;;;;5032113;28;20229;-43
2021/09/18 05:09:09;;;;;;;1.50;1.40;;;24.30;50.30;;;;;;5032637;28;20234;-45
2021/09/18 05:11:36;;;;;;;1.55;1.45;;;24.30;50.30;;;;;;5020886;28;20245;-45
2021/09/18 05:14:02;;;;;;;1.42;1.33;;;24.30;50.30;;;;;;5026758;28;20250;-45
2021/09/18 05:16:29;;;;;;;1.45;1.35;;;24.30;50.30;;;;;;5032856;28;20238;-44
2021/09/18 05:18:55;;;;;;;1.60;1.50;;;24.30;50.40;;;;;;5031668;28;20289;-46
2021/09/18 05:21:22;;;;;;;1.65;1.50;;;24.30;50.30;;;;;;5032566;28;20296;-42
2021/09/18 05:23:49;;;;;;;2.55;2.00;;;24.30;50.40;;;;;;5031843;28;20226;-44
2021/09/18 05:26:16;;;;;;;1.50;1.40;;;24.30;50.40;;;;;;5032306;28;20206;-47
2021/09/18 05:28:42;;;;;;;1.60;1.50;;;24.30;51.00;;;;;;5031204;28;20233;-49
2021/09/18 05:31:09;;;;;;;1.50;1.40;;;24.30;50.30;;;;;;5032347;28;20620;-47
2021/09/18 05:33:35;;;;;;;1.73;1.63;;;24.30;50.30;;;;;;5032538;28;20250;-46
2021/09/18 05:36:04;;;;;;;1.60;1.50;;;24.30;50.30;;;;;;5032250;28;20234;-43
2021/09/18 05:38:30;;;;;;;1.48;1.38;;;24.30;50.30;;;;;;5032058;28;20198;-45
2021/09/18 05:40:57;;;;;;;2.00;1.35;;;24.30;50.30;;;;;;5028835;28;20246;-46
2021/09/18 05:43:23;;;;;;;1.70;1.58;;;24.30;50.20;;;;;;5032466;28;20698;-46
2021/09/18 05:45:50;;;;;;;1.42;1.33;;;24.30;50.30;;;;;;5031090;28;20230;-43
2021/09/18 05:48:16;;;;;;;2.67;1.52;;;24.30;50.30;;;;;;5032076;28;20287;-47
2021/09/18 05:50:43;;;;;;;1.55;1.45;;;24.30;50.30;;;;;;5031549;28;20667;-48
2021/09/18 05:53:10;;;;;;;1.55;1.45;;;24.30;50.30;;;;;;5032311;28;20238;-43
2021/09/18 05:55:36;;;;;;;1.50;1.40;;;24.30;50.30;;;;;;5029788;28;20372;-44
2021/09/18 05:58:03;;;;;;;1.42;1.33;;;24.30;50.30;;;;;;5029943;28;20249;-45
2021/09/18 06:00:29;;;;;;;1.50;1.40;;;24.30;50.30;;;;;;5030048;28;20207;-48
2021/09/18 06:02:56;;;;;;;1.52;1.42;;;24.30;50.30;;;;;;5031423;28;20230;-43
2021/09/18 06:05:22;;;;;;;1.70;1.45;;;24.30;50.30;;;;;;5028592;28;20304;-42
2021/09/18 06:07:49;;;;;;;1.70;1.50;;;24.30;50.30;;;;;;5029880;28;20662;-46
2021/09/18 06:10:15;;;;;;;1.38;1.30;;;24.30;50.30;;;;;;5031581;28;20230;-52
2021/09/18 06:12:42;;;;;;;1.30;1.20;;;24.30;50.30;;;;;;5030736;28;20234;-49
2021/09/18 06:15:08;;;;;;;1.40;1.30;;;24.30;50.30;;;;;;5029927;28;20773;-44
2021/09/18 06:17:35;;;;;;;1.40;1.30;;;24.30;50.30;;;;;;5029919;28;20602;-43
2021/09/18 06:20:01;;;;;;;1.83;1.73;;;24.30;50.20;;;;;;5032118;28;20249;-46
2021/09/18 06:22:28;;;;;;;1.77;1.67;;;24.30;50.20;;;;;;5028979;28;20242;-48
2021/09/18 06:24:54;;;;;;;1.30;1.20;;;24.30;50.20;;;;;;5028946;28;20280;-42
2021/09/18 06:27:21;;;;;;;1.67;1.58;;;24.30;50.20;;;;;;5030079;28;20230;-49
2021/09/18 06:29:47;;;;;;;1.60;1.40;;;24.30;50.20;;;;;;5030732;28;20611;-42
2021/09/18 06:32:14;;;;;;;1.67;1.58;;;24.30;50.20;;;;;;5030674;28;20199;-47
2021/09/18 06:34:41;;;;;;;1.58;1.48;;;24.30;50.20;;;;;;5031325;28;20242;-42
2021/09/18 06:37:07;;;;;;;1.50;1.40;;;24.30;50.20;;;;;;5029617;28;20258;-51
2021/09/18 06:39:34;;;;;;;1.30;1.20;;;24.30;50.20;;;;;;5030999;28;20231;-47
2021/09/18 06:42:00;;;;;;;1.50;1.40;;;24.30;50.20;;;;;;5029815;28;20674;-48
2021/09/18 06:44:27;;;;;;;1.42;1.33;;;24.30;50.10;;;;;;5031042;28;20315;-43
2021/09/18 06:46:53;;;;;;;1.35;1.25;;;24.30;50.10;;;;;;5029710;28;20238;-43
2021/09/18 06:49:20;;;;;;;1.73;1.60;;;24.30;50.10;;;;;;5030753;28;20616;-54
2021/09/18 06:51:46;;;;;;;1.50;1.40;;;24.30;50.10;;;;;;5030117;28;20301;-42
2021/09/18 06:54:13;;;;;;;1.58;1.48;;;24.30;50.00;;;;;;5029994;28;20217;-47
2021/09/18 06:56:40;;;;;;;1.98;1.88;;;24.30;50.00;;;;;;5028569;28;20671;-51
2021/09/18 06:59:06;;;;;;;1.45;1.35;;;24.30;49.90;;;;;;5029154;28;20352;-44
2021/09/18 07:01:33;;;;;;;1.63;1.52;;;24.30;50.00;;;;;;5023414;28;20241;-42
2021/09/18 07:03:59;;;;;;;1.33;1.25;;;24.30;49.90;;;;;;5027658;28;20261;-49
2021/09/18 07:06:26;;;;;;;1.40;1.30;;;24.30;49.90;;;;;;5023369;28;20235;-42
2021/09/18 07:08:53;;;;;;;3.13;1.55;;;24.30;50.00;;;;;;5022353;28;20259;-43
2021/09/18 07:11:19;;;;;;;1.40;1.30;;;24.40;50.20;;;;;;5029258;28;20210;-43
2021/09/18 07:13:46;;;;;;;3.17;1.60;;;24.40;50.10;;;;;;5029758;28;20336;-44
2021/09/18 07:16:12;;;;;;;4.82;1.70;;;24.40;50.70;;;;;;5028775;28;20249;-46
2021/09/18 07:18:39;;;;;;;2.55;1.55;;;24.40;50.70;;;;;;5025912;28;20265;-44
2021/09/18 07:21:05;;;;;;;2.80;1.63;;;24.40;50.70;;;;;;5029280;28;20237;-43
2021/09/18 07:23:32;;;;;;;4.00;2.13;;;24.40;50.70;;;;;;5028943;28;20642;-42
2021/09/18 07:25:58;;;;;;;8.43;3.47;;;24.40;51.40;;;;;;5022481;28;20237;-46
2021/09/18 07:28:25;;;;;;;9.00;2.47;;;24.40;51.30;;;;;;5028062;28;20241;-45
2021/09/18 07:30:52;;;;;;;4.90;2.08;;;24.40;51.80;;;;;;5029519;28;20206;-42
2021/09/18 07:33:18;;;;;;;5.05;1.83;;;24.50;51.80;;;;;;5029599;28;20261;-43
2021/09/18 07:35:45;;;;;;;5.95;2.20;;;24.50;52.80;;;;;;5030631;28;20230;-44
2021/09/18 07:38:13;;;;;;;6.15;2.22;;;24.50;52.80;;;;;;5028348;28;20226;-44
2021/09/18 07:40:39;;;;;;;5.35;2.42;;;24.50;52.80;;;;;;5026427;28;20264;-45
2021/09/18 07:43:06;;;;;;;6.07;2.80;;;24.40;52.70;;;;;;5017677;28;20253;-45
2021/09/18 07:45:32;;;;;;;8.40;3.35;;;24.40;53.40;;;;;;5013446;28;20242;-54
2021/09/18 07:47:59;;;;;;;12.23;3.55;;;24.40;53.50;;;;;;5030165;28;20241;-47
2021/09/18 07:50:25;;;;;;;14.48;3.45;;;24.50;53.80;;;;;;5027635;28;20295;-45
2021/09/18 07:52:52;;;;;;;6.82;3.17;;;24.50;54.00;;;;;;5030573;28;20233;-44
2021/09/18 07:55:18;;;;;;;7.65;5.07;;;24.50;54.00;;;;;;5029764;28;20344;-50
2021/09/18 07:57:45;;;;;;;9.07;5.57;;;24.40;50.20;;;;;;5030134;28;20257;-49
2021/09/18 08:00:11;;;;;;;7.15;5.80;;;23.60;45.40;;;;;;5027458;28;20781;-52
2021/09/18 08:02:37;;;;;;;8.10;6.32;;;23.20;44.70;;;;;;5029719;28;20244;-42
2021/09/18 08:05:04;;;;;;;8.45;5.25;;;23.10;46.70;;;;;;5029162;28;20241;-43
2021/09/18 08:07:30;;;;;;;7.22;5.03;;;23.10;44.70;;;;;;5029107;28;20242;-46
2021/09/18 08:09:57;;;;;;;5.90;4.30;;;22.80;43.80;;;;;;5027853;28;20226;-46
2021/09/18 08:12:23;;;;;;;5.10;4.60;;;22.80;44.70;;;;;;5028814;28;20331;-48
2021/09/18 08:14:50;;;;;;;6.65;6.00;;;22.90;44.30;;;;;;5030695;28;20230;-49
2021/09/18 08:17:16;;;;;;;6.22;5.45;;;22.10;42.70;;;;;;5023458;28;20269;-44
2021/09/18 08:19:43;;;;;;;7.07;6.03;;;21.10;42.60;;;;;;5030070;28;20694;-48
2021/09/18 08:22:10;;;;;;;6.93;5.93;;;21.00;43.90;;;;;;5029351;28;20206;-44
2021/09/18 08:24:37;;;;;;;6.32;4.85;;;20.60;43.90;;;;;;5034146;28;20254;-52
2021/09/18 08:27:04;;;;;;;5.30;4.80;;;21.40;44.20;;;;;;5032128;28;20671;-45
2021/09/18 08:29:30;;;;;;;7.68;5.80;;;22.10;43.50;;;;;;5025244;28;20203;-42
2021/09/18 08:31:57;;;;;;;6.05;5.45;;;22.60;43.30;;;;;;5024491;28;20230;-45
2021/09/18 08:34:23;;;;;;;5.88;5.10;;;23.00;43.30;;;;;;5033446;28;20269;-46
2021/09/18 08:36:50;;;;;;;4.60;4.20;;;23.20;44.50;;;;;;5024625;28;20643;-43
2021/09/18 08:39:17;;;;;;;7.00;4.78;;;23.50;45.10;;;;;;5022803;28;20230;-45
2021/09/18 08:41:45;;;;;;;5.53;4.10;;;23.50;45.30;;;;;;5030568;28;20257;-45
2021/09/18 08:44:11;;;;;;;5.00;3.90;;;23.60;45.60;;;;;;5033473;28;20237;-44
2021/09/18 08:46:38;;;;;;;3.83;3.53;;;23.70;46.00;;;;;;5031669;28;20234;-47
2021/09/18 08:49:05;;;;;;;4.78;3.88;;;23.70;46.30;;;;;;5015320;28;20261;-44
2021/09/18 08:51:31;;;;;;;6.78;3.83;;;23.70;47.40;;;;;;5032014;28;20241;-45
2021/09/18 08:53:58;;;;;;;5.38;3.85;;;23.80;47.50;;;;;;5032094;28;20264;-44
2021/09/18 08:56:24;;;;;;;4.13;3.72;;;23.80;47.50;;;;;;5032468;28;20659;-49
2021/09/18 08:58:51;;;;;;;5.18;4.00;;;23.80;47.50;;;;;;5029242;28;20315;-47
2021/09/18 09:01:19;;;;;;;3.88;3.53;;;23.80;47.50;;;;;;5033510;28;20238;-45
2021/09/18 09:03:46;;;;;;;4.05;3.20;;;23.90;47.90;;;;;;5028191;28;20225;-52
2021/09/18 09:06:12;;;;;;;5.32;3.40;;;23.90;48.10;;;;;;5025770;28;20290;-46
2021/09/18 09:08:40;;;;;;;4.18;3.42;;;23.90;47.80;;;;;;5013274;28;20639;-46
2021/09/18 09:11:07;;;;;;;3.05;2.80;;;24.00;47.70;;;;;;5016520;28;20340;-55
2021/09/18 09:13:34;;;;;;;3.50;3.20;;;24.00;47.70;;;;;;5032923;28;20660;-53
2021/09/18 09:16:00;;;;;;;3.00;2.80;;;24.00;47.70;;;;;;5033210;28;20234;-44
2021/09/18 09:18:26;;;;;;;3.38;2.60;;;24.00;47.40;;;;;;5032554;28;20265;-49
2021/09/18 09:20:53;;;;;;;2.92;2.40;;;24.00;47.40;;;;;;5032807;28;20243;-44
2021/09/18 09:23:19;;;;;;;2.75;2.50;;;24.00;47.30;;;;;;5046436;23;20266;-48
2021/09/18 09:25:46;;;;;;;3.45;3.00;;;24.00;47.30;;;;;;5032833;28;20307;-51
2021/09/18 09:28:12;;;;;;;3.80;2.90;;;24.00;47.50;;;;;;5031842;28;20230;-47
2021/09/18 09:30:39;;;;;;;3.90;2.60;;;24.00;47.60;;;;;;5032649;28;20253;-50
2021/09/18 09:33:05;;;;;;;3.13;2.70;;;24.00;47.70;;;;;;5032290;28;20276;-49
2021/09/18 09:35:32;;;;;;;3.92;3.05;;;24.10;48.40;;;;;;5031338;28;20232;-51
2021/09/18 09:37:59;;;;;;;3.47;2.63;;;24.00;47.70;;;;;;5031976;28;20321;-48
2021/09/18 09:40:25;;;;;;;2.92;2.63;;;24.10;47.80;;;;;;5016271;28;20608;-48
2021/09/18 09:42:52;;;;;;;2.70;2.50;;;24.10;47.80;;;;;;5012188;28;20255;-51
2021/09/18 09:45:18;;;;;;;2.50;2.30;;;24.10;47.80;;;;;;5022905;28;20321;-48
2021/09/18 09:47:45;;;;;;;3.55;3.05;;;24.10;47.80;;;;;;5031506;28;20568;-48
2021/09/18 09:50:11;;;;;;;2.88;2.67;;;24.10;47.80;;;;;;5032322;28;20226;-44
2021/09/18 09:52:38;;;;;;;2.55;2.30;;;24.10;47.80;;;;;;5032328;28;20706;-47
2021/09/18 09:55:04;;;;;;;2.60;2.40;;;24.10;47.80;;;;;;5031460;28;20222;-46
2021/09/18 09:57:31;;;;;;;2.50;2.30;;;24.10;47.80;;;;;;5030823;28;20297;-49
2021/09/18 09:59:57;;;;;;;2.70;2.50;;;24.10;47.80;;;;;;5032367;28;20290;-47
2021/09/18 10:02:24;;;;;;;2.70;2.50;;;24.10;47.80;;;;;;5029827;28;20635;-47
2021/09/18 10:04:50;;;;;;;3.05;2.70;;;24.10;48.00;;;;;;5029555;28;20222;-48
2021/09/18 10:07:17;;;;;;;2.75;2.30;;;24.10;48.00;;;;;;5022516;28;20289;-46
2021/09/18 10:09:44;;;;;;;2.97;2.75;;;24.20;48.60;;;;;;5029911;28;20293;-48
2021/09/18 10:12:10;;;;;;;3.25;2.58;;;24.20;48.70;;;;;;5027793;28;21879;-46
2021/09/18 10:14:37;;;;;;;5.57;2.88;;;24.30;48.70;;;;;;5029900;28;20285;-44
2021/09/18 10:17:03;;;;;;;2.95;2.75;;;24.30;49.50;;;;;;5028392;28;20705;-43
2021/09/18 10:19:53;;;;;;;2.72;2.30;;;24.30;50.90;;;;;;5028454;28;20337;-47
2021/09/18 10:25:04;;;;;;;4.03;2.80;;;24.40;51.10;;;;;;5021398;28;21029;-48
2021/09/18 10:27:30;;;;;;;4.28;2.65;;;24.40;51.20;;;;;;5029873;28;20337;-50
2021/09/18 10:29:57;;;;;;;3.15;2.63;;;24.40;51.70;;;;;;5027100;28;20306;-50
2021/09/18 10:32:24;;;;;;;4.32;2.60;;;24.40;51.30;;;;;;5027961;28;20281;-48
2021/09/18 10:34:50;;;;;;;5.95;2.65;;;24.40;50.90;;;;;;5027801;28;20206;-50
2021/09/18 10:37:16;;;;;;;6.57;2.58;;;24.40;50.50;;;;;;5030405;28;20292;-53
2021/09/18 10:39:43;;;;;;;5.13;2.83;;;24.40;51.80;;;;;;5027053;28;20281;-50
2021/09/18 10:42:09;;;;;;;4.90;2.60;;;24.40;50.90;;;;;;5029644;28;20864;-48
2021/09/18 10:44:36;;;;;;;3.53;2.33;;;24.40;50.80;;;;;;5029301;28;20234;-54
2021/09/18 10:47:02;;;;;;;2.60;2.40;;;24.40;50.60;;;;;;5029570;28;20230;-53
2021/09/18 10:49:29;;;;;;;2.70;2.50;;;24.30;50.30;;;;;;5025124;28;20701;-52
2021/09/18 10:51:55;;;;;;;2.35;2.10;;;24.30;50.40;;;;;;5029700;28;20280;-57
2021/09/18 10:54:22;;;;;;;2.90;2.28;;;24.40;50.40;;;;;;5026643;28;20299;-52
2021/09/18 10:56:49;;;;;;;3.85;2.55;;;24.40;50.40;;;;;;5023530;28;20234;-54
2021/09/18 10:59:16;;;;;;;3.38;2.30;;;24.40;50.20;;;;;;5028504;28;20280;-53
2021/09/18 11:01:42;;;;;;;3.25;2.30;;;24.40;50.00;;;;;;5030469;28;20225;-53
2021/09/18 11:04:09;;;;;;;3.45;2.25;;;24.40;50.10;;;;;;5030200;28;20341;-53
2021/09/18 11:06:36;;;;;;;3.75;2.30;;;24.40;50.10;;;;;;5025945;28;20238;-49
2021/09/18 11:09:02;;;;;;;5.05;2.53;;;24.40;50.20;;;;;;5028069;28;20206;-50
2021/09/18 11:11:29;;;;;;;3.65;2.50;;;24.40;50.00;;;;;;5022780;28;20207;-52
2021/09/18 11:13:56;;;;;;;4.00;2.40;;;24.40;50.00;;;;;;5030635;28;20214;-51
2021/09/18 11:16:23;;;;;;;4.20;2.17;;;24.40;50.00;;;;;;5029545;28;20325;-53
2021/09/18 11:18:49;;;;;;;3.42;2.30;;;24.40;49.90;;;;;;5029735;28;20770;-47
2021/09/18 11:21:17;;;;;;;3.78;2.22;;;24.40;49.90;;;;;;5027547;28;20228;-51
2021/09/18 11:23:44;;;;;;;2.75;2.28;;;24.40;50.00;;;;;;5027323;28;20336;-50
2021/09/18 11:26:10;;;;;;;3.28;2.10;;;24.40;49.90;;;;;;5028936;28;20314;-51
2021/09/18 11:28:37;;;;;;;5.03;3.08;;;24.50;50.00;;;;;;5028688;28;20294;-48
2021/09/18 11:31:03;;;;;;;3.33;2.47;;;24.50;49.90;;;;;;5024615;28;20230;-50
2021/09/18 11:33:30;;;;;;;3.05;2.20;;;24.50;49.90;;;;;;5029021;28;20238;-47
2021/09/18 11:35:56;;;;;;;4.32;2.40;;;24.50;50.00;;;;;;5028810;28;20219;-46
2021/09/18 11:38:23;;;;;;;2.40;2.15;;;24.50;49.90;;;;;;5027233;28;20952;-51
2021/09/18 11:40:49;;;;;;;3.13;2.08;;;24.50;49.80;;;;;;5026256;28;20294;-53
